sensor_id;sensor_type;location;lat;lon;timestamp;P1;durP1;ratioP1;P2;durP2;ratioP2
60494;SDS011;46342;49.046;11.920;2024-02-16T00:00:00;3.30;;;2.85;;
60494;SDS011;46342;49.046;11.920;2024-02-16T00:02:26;3.22;;;2.92;;
60494;SDS011;46342;49.046;11.920;2024-02-16T00:04:52;3.75;;;2.58;;
60494;SDS011;46342;49.046;11.920;2024-02-16T00:07:17;3.05;;;2.75;;
60494;SDS011;46342;49.046;11.920;2024-02-16T00:09:43;3.20;;;2.90;;
60494;SDS011;46342;49.046;11.920;2024-02-16T00:12:08;4.13;;;3.40;;
60494;SDS011;46342;49.046;11.920;2024-02-16T00:14:34;3.92;;;3.03;;
60494;SDS011;46342;49.046;11.920;2024-02-16T00:16:59;7.10;;;3.35;;
60494;SDS011;46342;49.046;11.920;2024-02-16T00:19:25;4.90;;;3.33;;
60494;SDS011;46342;49.046;11.920;2024-02-16T00:21:52;5.22;;;3.15;;
60494;SDS011;46342;49.046;11.920;2024-02-16T00:24:17;3.97;;;3.28;;
60494;SDS011;46342;49.046;11.920;2024-02-16T00:26:43;3.85;;;3.13;;
60494;SDS011;46342;49.046;11.920;2024-02-16T00:29:10;4.30;;;3.50;;
60494;SDS011;46342;49.046;11.920;2024-02-16T00:31:36;4.25;;;3.15;;
60494;SDS011;46342;49.046;11.920;2024-02-16T00:34:01;3.63;;;3.10;;
60494;SDS011;46342;49.046;11.920;2024-02-16T00:36:27;3.78;;;2.97;;
60494;SDS011;46342;49.046;11.920;2024-02-16T00:38:53;4.68;;;3.33;;
60494;SDS011;46342;49.046;11.920;2024-02-16T00:41:19;5.55;;;3.63;;
60494;SDS011;46342;49.046;11.920;2024-02-16T00:43:47;4.32;;;3.38;;
60494;SDS011;46342;49.046;11.920;2024-02-16T00:46:12;4.63;;;3.28;;
60494;SDS011;46342;49.046;11.920;2024-02-16T00:48:38;3.97;;;3.33;;
60494;SDS011;46342;49.046;11.920;2024-02-16T00:51:04;3.67;;;3.00;;
60494;SDS011;46342;49.046;11.920;2024-02-16T00:53:29;5.18;;;3.00;;
60494;SDS011;46342;49.046;11.920;2024-02-16T00:55:55;4.18;;;3.40;;
60494;SDS011;46342;49.046;11.920;2024-02-16T00:58:20;3.38;;;2.97;;
60494;SDS011;46342;49.046;11.920;2024-02-16T01:00:46;4.00;;;3.42;;
60494;SDS011;46342;49.046;11.920;2024-02-16T01:03:12;4.28;;;3.10;;
60494;SDS011;46342;49.046;11.920;2024-02-16T01:05:38;4.05;;;3.15;;
60494;SDS011;46342;49.046;11.920;2024-02-16T01:08:06;3.60;;;2.90;;
60494;SDS011;46342;49.046;11.920;2024-02-16T01:10:31;4.40;;;3.45;;
60494;SDS011;46342;49.046;11.920;2024-02-16T01:12:57;6.63;;;3.28;;
60494;SDS011;46342;49.046;11.920;2024-02-16T01:15:23;5.25;;;3.13;;
60494;SDS011;46342;49.046;11.920;2024-02-16T01:17:48;4.53;;;3.55;;
60494;SDS011;46342;49.046;11.920;2024-02-16T01:20:14;4.10;;;3.13;;
60494;SDS011;46342;49.046;11.920;2024-02-16T01:22:40;3.55;;;2.75;;
60494;SDS011;46342;49.046;11.920;2024-02-16T01:25:07;5.18;;;3.17;;
60494;SDS011;46342;49.046;11.920;2024-02-16T01:27:33;6.73;;;3.60;;
60494;SDS011;46342;49.046;11.920;2024-02-16T01:30:00;4.45;;;3.03;;
60494;SDS011;46342;49.046;11.920;2024-02-16T01:32:26;4.68;;;3.40;;
60494;SDS011;46342;49.046;11.920;2024-02-16T01:34:52;4.47;;;3.70;;
60494;SDS011;46342;49.046;11.920;2024-02-16T01:37:17;4.75;;;3.80;;
60494;SDS011;46342;49.046;11.920;2024-02-16T01:39:43;4.90;;;3.58;;
60494;SDS011;46342;49.046;11.920;2024-02-16T01:42:09;4.65;;;3.50;;
60494;SDS011;46342;49.046;11.920;2024-02-16T01:44:36;4.55;;;3.70;;
60494;SDS011;46342;49.046;11.920;2024-02-16T01:47:02;4.70;;;3.50;;
60494;SDS011;46342;49.046;11.920;2024-02-16T01:49:29;4.45;;;3.70;;
60494;SDS011;46342;49.046;11.920;2024-02-16T01:51:55;4.47;;;3.25;;
60494;SDS011;46342;49.046;11.920;2024-02-16T01:54:21;6.03;;;3.65;;
60494;SDS011;46342;49.046;11.920;2024-02-16T01:56:48;4.60;;;3.78;;
60494;SDS011;46342;49.046;11.920;2024-02-16T01:59:15;4.90;;;3.73;;
60494;SDS011;46342;49.046;11.920;2024-02-16T02:01:41;4.57;;;4.07;;
60494;SDS011;46342;49.046;11.920;2024-02-16T02:04:07;5.18;;;3.53;;
60494;SDS011;46342;49.046;11.920;2024-02-16T02:06:33;4.40;;;3.60;;
60494;SDS011;46342;49.046;11.920;2024-02-16T02:08:58;4.13;;;3.58;;
60494;SDS011;46342;49.046;11.920;2024-02-16T02:11:24;4.97;;;3.75;;
60494;SDS011;46342;49.046;11.920;2024-02-16T02:13:49;4.82;;;3.53;;
60494;SDS011;46342;49.046;11.920;2024-02-16T02:16:15;4.88;;;3.47;;
60494;SDS011;46342;49.046;11.920;2024-02-16T02:18:43;4.28;;;3.58;;
60494;SDS011;46342;49.046;11.920;2024-02-16T02:21:08;4.53;;;3.85;;
60494;SDS011;46342;49.046;11.920;2024-02-16T02:23:34;4.43;;;3.83;;
60494;SDS011;46342;49.046;11.920;2024-02-16T02:26:00;5.15;;;3.95;;
60494;SDS011;46342;49.046;11.920;2024-02-16T02:28:26;4.93;;;3.60;;
60494;SDS011;46342;49.046;11.920;2024-02-16T02:30:52;4.30;;;3.53;;
60494;SDS011;46342;49.046;11.920;2024-02-16T02:33:18;3.10;;;2.80;;
60494;SDS011;46342;49.046;11.920;2024-02-16T02:35:44;3.53;;;2.88;;
60494;SDS011;46342;49.046;11.920;2024-02-16T02:38:11;3.63;;;2.70;;
60494;SDS011;46342;49.046;11.920;2024-02-16T02:40:37;4.45;;;2.75;;
60494;SDS011;46342;49.046;11.920;2024-02-16T02:43:03;4.18;;;2.75;;
60494;SDS011;46342;49.046;11.920;2024-02-16T02:45:29;3.05;;;2.72;;
60494;SDS011;46342;49.046;11.920;2024-02-16T02:47:54;3.15;;;2.47;;
60494;SDS011;46342;49.046;11.920;2024-02-16T02:50:20;4.22;;;2.78;;
60494;SDS011;46342;49.046;11.920;2024-02-16T02:52:45;4.45;;;3.28;;
60494;SDS011;46342;49.046;11.920;2024-02-16T02:55:11;6.20;;;3.40;;
60494;SDS011;46342;49.046;11.920;2024-02-16T02:57:36;3.80;;;3.40;;
60494;SDS011;46342;49.046;11.920;2024-02-16T03:00:03;3.85;;;3.40;;
60494;SDS011;46342;49.046;11.920;2024-02-16T03:02:35;3.88;;;3.35;;
60494;SDS011;46342;49.046;11.920;2024-02-16T03:05:02;6.38;;;4.15;;
60494;SDS011;46342;49.046;11.920;2024-02-16T03:07:28;3.97;;;3.58;;
60494;SDS011;46342;49.046;11.920;2024-02-16T03:09:54;4.25;;;3.42;;
60494;SDS011;46342;49.046;11.920;2024-02-16T03:12:19;6.03;;;3.70;;
60494;SDS011;46342;49.046;11.920;2024-02-16T03:14:45;4.00;;;3.25;;
60494;SDS011;46342;49.046;11.920;2024-02-16T03:17:10;5.72;;;3.60;;
60494;SDS011;46342;49.046;11.920;2024-02-16T03:19:36;3.83;;;3.50;;
60494;SDS011;46342;49.046;11.920;2024-02-16T03:22:01;4.95;;;3.50;;
60494;SDS011;46342;49.046;11.920;2024-02-16T03:24:27;4.15;;;3.40;;
60494;SDS011;46342;49.046;11.920;2024-02-16T03:26:53;4.45;;;3.33;;
60494;SDS011;46342;49.046;11.920;2024-02-16T03:29:18;3.53;;;3.13;;
60494;SDS011;46342;49.046;11.920;2024-02-16T03:31:44;5.32;;;3.75;;
60494;SDS011;46342;49.046;11.920;2024-02-16T03:34:09;5.22;;;3.63;;
60494;SDS011;46342;49.046;11.920;2024-02-16T03:36:35;3.90;;;3.50;;
60494;SDS011;46342;49.046;11.920;2024-02-16T03:39:01;5.25;;;3.75;;
60494;SDS011;46342;49.046;11.920;2024-02-16T03:41:26;4.88;;;3.90;;
60494;SDS011;46342;49.046;11.920;2024-02-16T03:43:52;4.30;;;3.63;;
60494;SDS011;46342;49.046;11.920;2024-02-16T03:46:18;3.67;;;3.30;;
60494;SDS011;46342;49.046;11.920;2024-02-16T03:48:44;4.05;;;3.60;;
60494;SDS011;46342;49.046;11.920;2024-02-16T03:51:10;4.13;;;3.63;;
60494;SDS011;46342;49.046;11.920;2024-02-16T03:53:35;5.05;;;3.60;;
60494;SDS011;46342;49.046;11.920;2024-02-16T03:56:01;5.85;;;3.88;;
60494;SDS011;46342;49.046;11.920;2024-02-16T03:58:26;4.20;;;3.80;;
60494;SDS011;46342;49.046;11.920;2024-02-16T04:00:52;4.88;;;3.53;;
60494;SDS011;46342;49.046;11.920;2024-02-16T04:03:18;6.25;;;3.70;;
60494;SDS011;46342;49.046;11.920;2024-02-16T04:05:44;4.68;;;3.70;;
60494;SDS011;46342;49.046;11.920;2024-02-16T04:08:09;4.65;;;3.33;;
60494;SDS011;46342;49.046;11.920;2024-02-16T04:10:35;3.75;;;3.40;;
60494;SDS011;46342;49.046;11.920;2024-02-16T04:13:01;4.05;;;3.65;;
60494;SDS011;46342;49.046;11.920;2024-02-16T04:15:27;4.18;;;3.30;;
60494;SDS011;46342;49.046;11.920;2024-02-16T04:17:53;4.32;;;3.40;;
60494;SDS011;46342;49.046;11.920;2024-02-16T04:20:19;4.47;;;3.38;;
60494;SDS011;46342;49.046;11.920;2024-02-16T04:22:45;5.32;;;3.58;;
60494;SDS011;46342;49.046;11.920;2024-02-16T04:25:11;4.05;;;3.20;;
60494;SDS011;46342;49.046;11.920;2024-02-16T04:27:37;4.05;;;3.65;;
60494;SDS011;46342;49.046;11.920;2024-02-16T04:30:03;3.80;;;3.28;;
60494;SDS011;46342;49.046;11.920;2024-02-16T04:32:30;3.83;;;3.17;;
60494;SDS011;46342;49.046;11.920;2024-02-16T04:34:56;3.75;;;3.22;;
60494;SDS011;46342;49.046;11.920;2024-02-16T04:37:22;3.88;;;3.42;;
60494;SDS011;46342;49.046;11.920;2024-02-16T04:39:48;3.40;;;3.10;;
60494;SDS011;46342;49.046;11.920;2024-02-16T04:42:14;6.15;;;3.80;;
60494;SDS011;46342;49.046;11.920;2024-02-16T04:44:40;4.00;;;3.47;;
60494;SDS011;46342;49.046;11.920;2024-02-16T04:47:06;4.57;;;3.50;;
60494;SDS011;46342;49.046;11.920;2024-02-16T04:49:32;6.30;;;4.00;;
60494;SDS011;46342;49.046;11.920;2024-02-16T04:51:57;3.97;;;3.05;;
60494;SDS011;46342;49.046;11.920;2024-02-16T04:54:23;5.22;;;3.65;;
60494;SDS011;46342;49.046;11.920;2024-02-16T04:56:49;4.78;;;3.38;;
60494;SDS011;46342;49.046;11.920;2024-02-16T04:59:15;4.63;;;3.55;;
60494;SDS011;46342;49.046;11.920;2024-02-16T05:01:42;7.75;;;3.75;;
60494;SDS011;46342;49.046;11.920;2024-02-16T05:04:09;4.05;;;3.30;;
60494;SDS011;46342;49.046;11.920;2024-02-16T05:06:41;4.35;;;3.45;;
60494;SDS011;46342;49.046;11.920;2024-02-16T05:09:07;3.97;;;3.58;;
60494;SDS011;46342;49.046;11.920;2024-02-16T05:11:33;4.90;;;3.45;;
60494;SDS011;46342;49.046;11.920;2024-02-16T05:13:59;5.25;;;3.95;;
60494;SDS011;46342;49.046;11.920;2024-02-16T05:16:25;5.40;;;3.88;;
60494;SDS011;46342;49.046;11.920;2024-02-16T05:18:51;4.50;;;3.80;;
60494;SDS011;46342;49.046;11.920;2024-02-16T05:21:17;5.55;;;3.88;;
60494;SDS011;46342;49.046;11.920;2024-02-16T05:23:43;4.20;;;3.80;;
60494;SDS011;46342;49.046;11.920;2024-02-16T05:26:08;4.13;;;3.63;;
60494;SDS011;46342;49.046;11.920;2024-02-16T05:28:34;4.60;;;3.72;;
60494;SDS011;46342;49.046;11.920;2024-02-16T05:31:18;4.75;;;3.58;;
60494;SDS011;46342;49.046;11.920;2024-02-16T05:33:44;3.80;;;3.33;;
60494;SDS011;46342;49.046;11.920;2024-02-16T05:36:12;4.40;;;3.78;;
60494;SDS011;46342;49.046;11.920;2024-02-16T05:38:41;4.50;;;3.38;;
60494;SDS011;46342;49.046;11.920;2024-02-16T05:41:08;4.93;;;3.90;;
60494;SDS011;46342;49.046;11.920;2024-02-16T05:43:34;5.07;;;4.07;;
60494;SDS011;46342;49.046;11.920;2024-02-16T05:45:59;4.82;;;3.78;;
60494;SDS011;46342;49.046;11.920;2024-02-16T05:48:25;4.78;;;4.05;;
60494;SDS011;46342;49.046;11.920;2024-02-16T05:50:59;5.68;;;4.05;;
60494;SDS011;46342;49.046;11.920;2024-02-16T05:53:26;7.00;;;4.30;;
60494;SDS011;46342;49.046;11.920;2024-02-16T05:55:52;5.75;;;3.63;;
60494;SDS011;46342;49.046;11.920;2024-02-16T05:58:18;4.82;;;3.83;;
60494;SDS011;46342;49.046;11.920;2024-02-16T06:00:44;4.55;;;3.83;;
60494;SDS011;46342;49.046;11.920;2024-02-16T06:05:38;3.55;;;3.20;;
60494;SDS011;46342;49.046;11.920;2024-02-16T06:08:05;5.80;;;3.55;;
60494;SDS011;46342;49.046;11.920;2024-02-16T06:10:34;3.88;;;3.47;;
60494;SDS011;46342;49.046;11.920;2024-02-16T06:13:00;5.03;;;4.20;;
60494;SDS011;46342;49.046;11.920;2024-02-16T06:15:25;4.10;;;3.55;;
60494;SDS011;46342;49.046;11.920;2024-02-16T06:17:51;7.65;;;4.60;;
60494;SDS011;46342;49.046;11.920;2024-02-16T06:20:17;5.45;;;4.95;;
60494;SDS011;46342;49.046;11.920;2024-02-16T06:22:43;4.38;;;3.83;;
60494;SDS011;46342;49.046;11.920;2024-02-16T06:25:09;4.13;;;3.67;;
60494;SDS011;46342;49.046;11.920;2024-02-16T06:27:34;6.05;;;4.25;;
60494;SDS011;46342;49.046;11.920;2024-02-16T06:30:02;5.30;;;3.70;;
60494;SDS011;46342;49.046;11.920;2024-02-16T06:32:29;4.93;;;3.55;;
60494;SDS011;46342;49.046;11.920;2024-02-16T06:34:56;4.45;;;3.85;;
60494;SDS011;46342;49.046;11.920;2024-02-16T06:37:22;4.00;;;3.08;;
60494;SDS011;46342;49.046;11.920;2024-02-16T06:39:47;4.32;;;3.58;;
60494;SDS011;46342;49.046;11.920;2024-02-16T06:42:13;4.28;;;3.88;;
60494;SDS011;46342;49.046;11.920;2024-02-16T06:44:39;4.47;;;3.95;;
60494;SDS011;46342;49.046;11.920;2024-02-16T06:47:05;4.22;;;3.67;;
60494;SDS011;46342;49.046;11.920;2024-02-16T06:49:31;5.53;;;4.05;;
60494;SDS011;46342;49.046;11.920;2024-02-16T06:51:57;4.63;;;3.78;;
60494;SDS011;46342;49.046;11.920;2024-02-16T06:54:22;4.40;;;3.67;;
60494;SDS011;46342;49.046;11.920;2024-02-16T06:56:51;5.38;;;3.80;;
60494;SDS011;46342;49.046;11.920;2024-02-16T06:59:17;4.30;;;3.65;;
60494;SDS011;46342;49.046;11.920;2024-02-16T07:01:42;3.72;;;3.40;;
60494;SDS011;46342;49.046;11.920;2024-02-16T07:04:08;4.95;;;3.42;;
60494;SDS011;46342;49.046;11.920;2024-02-16T07:06:34;4.30;;;3.90;;
60494;SDS011;46342;49.046;11.920;2024-02-16T07:09:00;4.43;;;3.55;;
60494;SDS011;46342;49.046;11.920;2024-02-16T07:11:27;4.10;;;3.70;;
60494;SDS011;46342;49.046;11.920;2024-02-16T07:13:53;4.35;;;3.78;;
60494;SDS011;46342;49.046;11.920;2024-02-16T07:16:18;5.57;;;4.28;;
60494;SDS011;46342;49.046;11.920;2024-02-16T07:18:44;4.95;;;4.03;;
60494;SDS011;46342;49.046;11.920;2024-02-16T07:21:09;4.93;;;4.32;;
60494;SDS011;46342;49.046;11.920;2024-02-16T07:23:36;4.85;;;4.35;;
60494;SDS011;46342;49.046;11.920;2024-02-16T07:26:02;5.00;;;3.88;;
60494;SDS011;46342;49.046;11.920;2024-02-16T07:28:28;7.38;;;4.05;;
60494;SDS011;46342;49.046;11.920;2024-02-16T07:30:53;5.25;;;4.00;;
60494;SDS011;46342;49.046;11.920;2024-02-16T07:33:20;7.82;;;4.50;;
60494;SDS011;46342;49.046;11.920;2024-02-16T07:35:46;5.88;;;4.47;;
60494;SDS011;46342;49.046;11.920;2024-02-16T07:38:12;6.25;;;4.80;;
60494;SDS011;46342;49.046;11.920;2024-02-16T07:40:37;5.20;;;4.15;;
60494;SDS011;46342;49.046;11.920;2024-02-16T07:43:03;5.78;;;4.40;;
60494;SDS011;46342;49.046;11.920;2024-02-16T07:45:29;4.03;;;3.63;;
60494;SDS011;46342;49.046;11.920;2024-02-16T07:47:55;4.20;;;3.08;;
60494;SDS011;46342;49.046;11.920;2024-02-16T07:50:21;3.40;;;3.10;;
60494;SDS011;46342;49.046;11.920;2024-02-16T07:52:48;6.70;;;4.45;;
60494;SDS011;46342;49.046;11.920;2024-02-16T07:55:14;4.72;;;4.25;;
60494;SDS011;46342;49.046;11.920;2024-02-16T08:00:07;4.28;;;3.75;;
60494;SDS011;46342;49.046;11.920;2024-02-16T08:05:01;5.78;;;3.53;;
60494;SDS011;46342;49.046;11.920;2024-02-16T08:07:26;4.60;;;3.78;;
60494;SDS011;46342;49.046;11.920;2024-02-16T08:09:52;4.10;;;3.70;;
60494;SDS011;46342;49.046;11.920;2024-02-16T08:12:18;5.82;;;4.15;;
60494;SDS011;46342;49.046;11.920;2024-02-16T08:14:43;5.40;;;3.70;;
60494;SDS011;46342;49.046;11.920;2024-02-16T08:17:11;4.15;;;3.65;;
60494;SDS011;46342;49.046;11.920;2024-02-16T08:19:37;4.43;;;3.85;;
60494;SDS011;46342;49.046;11.920;2024-02-16T08:22:03;5.10;;;4.07;;
60494;SDS011;46342;49.046;11.920;2024-02-16T08:24:36;5.65;;;4.03;;
60494;SDS011;46342;49.046;11.920;2024-02-16T08:27:03;5.55;;;4.47;;
60494;SDS011;46342;49.046;11.920;2024-02-16T08:29:29;5.35;;;3.78;;
60494;SDS011;46342;49.046;11.920;2024-02-16T08:31:55;4.70;;;4.13;;
60494;SDS011;46342;49.046;11.920;2024-02-16T08:34:20;6.85;;;3.83;;
60494;SDS011;46342;49.046;11.920;2024-02-16T08:36:47;7.80;;;4.15;;
60494;SDS011;46342;49.046;11.920;2024-02-16T08:39:14;6.53;;;4.38;;
60494;SDS011;46342;49.046;11.920;2024-02-16T08:41:40;5.20;;;3.58;;
60494;SDS011;46342;49.046;11.920;2024-02-16T08:44:06;4.93;;;3.22;;
60494;SDS011;46342;49.046;11.920;2024-02-16T08:46:35;5.22;;;3.97;;
60494;SDS011;46342;49.046;11.920;2024-02-16T08:49:02;4.72;;;4.05;;
60494;SDS011;46342;49.046;11.920;2024-02-16T08:51:28;4.30;;;3.90;;
60494;SDS011;46342;49.046;11.920;2024-02-16T08:53:54;5.78;;;4.50;;
60494;SDS011;46342;49.046;11.920;2024-02-16T08:56:20;5.55;;;4.15;;
60494;SDS011;46342;49.046;11.920;2024-02-16T08:58:46;4.47;;;3.88;;
60494;SDS011;46342;49.046;11.920;2024-02-16T09:01:11;5.28;;;4.18;;
60494;SDS011;46342;49.046;11.920;2024-02-16T09:03:37;5.63;;;3.70;;
60494;SDS011;46342;49.046;11.920;2024-02-16T09:06:05;5.97;;;3.95;;
60494;SDS011;46342;49.046;11.920;2024-02-16T09:08:31;4.82;;;3.97;;
60494;SDS011;46342;49.046;11.920;2024-02-16T09:11:02;7.75;;;4.70;;
60494;SDS011;46342;49.046;11.920;2024-02-16T09:13:33;5.78;;;4.20;;
60494;SDS011;46342;49.046;11.920;2024-02-16T09:16:00;5.32;;;4.15;;
60494;SDS011;46342;49.046;11.920;2024-02-16T09:18:26;5.25;;;3.85;;
60494;SDS011;46342;49.046;11.920;2024-02-16T09:20:52;6.15;;;4.68;;
60494;SDS011;46342;49.046;11.920;2024-02-16T09:23:17;5.88;;;4.40;;
60494;SDS011;46342;49.046;11.920;2024-02-16T09:25:43;5.75;;;3.92;;
60494;SDS011;46342;49.046;11.920;2024-02-16T09:28:11;4.90;;;4.38;;
60494;SDS011;46342;49.046;11.920;2024-02-16T09:30:37;4.40;;;3.78;;
60494;SDS011;46342;49.046;11.920;2024-02-16T09:33:03;6.40;;;4.32;;
60494;SDS011;46342;49.046;11.920;2024-02-16T09:35:29;7.55;;;4.55;;
60494;SDS011;46342;49.046;11.920;2024-02-16T09:37:54;4.85;;;4.22;;
60494;SDS011;46342;49.046;11.920;2024-02-16T09:40:21;4.60;;;3.95;;
60494;SDS011;46342;49.046;11.920;2024-02-16T09:42:49;4.70;;;4.18;;
60494;SDS011;46342;49.046;11.920;2024-02-16T09:45:16;4.57;;;3.83;;
60494;SDS011;46342;49.046;11.920;2024-02-16T09:47:45;4.55;;;4.15;;
60494;SDS011;46342;49.046;11.920;2024-02-16T09:50:14;5.00;;;4.20;;
60494;SDS011;46342;49.046;11.920;2024-02-16T09:52:40;7.40;;;4.88;;
60494;SDS011;46342;49.046;11.920;2024-02-16T09:55:07;4.70;;;4.22;;
60494;SDS011;46342;49.046;11.920;2024-02-16T09:57:36;5.10;;;3.70;;
60494;SDS011;46342;49.046;11.920;2024-02-16T10:00:02;4.85;;;4.00;;
60494;SDS011;46342;49.046;11.920;2024-02-16T10:02:43;5.18;;;4.28;;
60494;SDS011;46342;49.046;11.920;2024-02-16T10:05:14;4.95;;;3.80;;
60494;SDS011;46342;49.046;11.920;2024-02-16T10:07:49;5.85;;;4.35;;
60494;SDS011;46342;49.046;11.920;2024-02-16T10:10:24;4.60;;;4.15;;
60494;SDS011;46342;49.046;11.920;2024-02-16T10:15:28;4.47;;;3.72;;
60494;SDS011;46342;49.046;11.920;2024-02-16T10:18:01;4.32;;;3.40;;
60494;SDS011;46342;49.046;11.920;2024-02-16T10:20:27;6.10;;;3.72;;
60494;SDS011;46342;49.046;11.920;2024-02-16T10:23:03;4.50;;;3.50;;
60494;SDS011;46342;49.046;11.920;2024-02-16T10:25:34;3.75;;;3.42;;
60494;SDS011;46342;49.046;11.920;2024-02-16T10:28:04;4.53;;;3.80;;
60494;SDS011;46342;49.046;11.920;2024-02-16T10:30:38;4.07;;;3.60;;
60494;SDS011;46342;49.046;11.920;2024-02-16T10:33:05;6.07;;;3.80;;
60494;SDS011;46342;49.046;11.920;2024-02-16T10:35:32;4.05;;;3.47;;
60494;SDS011;46342;49.046;11.920;2024-02-16T10:38:00;5.22;;;3.88;;
60494;SDS011;46342;49.046;11.920;2024-02-16T10:40:34;4.13;;;3.58;;
60494;SDS011;46342;49.046;11.920;2024-02-16T10:43:05;4.68;;;3.88;;
60494;SDS011;46342;49.046;11.920;2024-02-16T10:45:33;4.22;;;3.78;;
60494;SDS011;46342;49.046;11.920;2024-02-16T10:47:59;9.85;;;4.13;;
60494;SDS011;46342;49.046;11.920;2024-02-16T10:50:25;5.05;;;3.40;;
60494;SDS011;46342;49.046;11.920;2024-02-16T10:52:51;5.82;;;3.60;;
60494;SDS011;46342;49.046;11.920;2024-02-16T10:55:20;3.80;;;3.40;;
60494;SDS011;46342;49.046;11.920;2024-02-16T10:57:46;4.07;;;3.67;;
60494;SDS011;46342;49.046;11.920;2024-02-16T11:00:12;6.32;;;4.10;;
60494;SDS011;46342;49.046;11.920;2024-02-16T11:02:50;3.38;;;3.08;;
60494;SDS011;46342;49.046;11.920;2024-02-16T11:05:18;3.92;;;3.53;;
60494;SDS011;46342;49.046;11.920;2024-02-16T11:07:44;4.60;;;3.42;;
60494;SDS011;46342;49.046;11.920;2024-02-16T11:10:11;4.38;;;3.40;;
60494;SDS011;46342;49.046;11.920;2024-02-16T11:15:10;3.78;;;3.10;;
60494;SDS011;46342;49.046;11.920;2024-02-16T11:17:38;5.47;;;3.27;;
60494;SDS011;46342;49.046;11.920;2024-02-16T11:20:06;3.28;;;2.97;;
60494;SDS011;46342;49.046;11.920;2024-02-16T11:22:32;4.00;;;3.42;;
60494;SDS011;46342;49.046;11.920;2024-02-16T11:25:04;3.45;;;3.15;;
60494;SDS011;46342;49.046;11.920;2024-02-16T11:27:31;3.53;;;3.22;;
60494;SDS011;46342;49.046;11.920;2024-02-16T11:29:58;4.20;;;3.45;;
60494;SDS011;46342;49.046;11.920;2024-02-16T11:32:25;4.35;;;3.33;;
60494;SDS011;46342;49.046;11.920;2024-02-16T11:34:51;4.07;;;3.42;;
60494;SDS011;46342;49.046;11.920;2024-02-16T11:37:16;4.38;;;3.60;;
60494;SDS011;46342;49.046;11.920;2024-02-16T11:39:42;4.25;;;3.28;;
60494;SDS011;46342;49.046;11.920;2024-02-16T11:42:12;3.78;;;3.22;;
60494;SDS011;46342;49.046;11.920;2024-02-16T11:44:39;4.63;;;3.42;;
60494;SDS011;46342;49.046;11.920;2024-02-16T11:47:18;4.33;;;3.63;;
60494;SDS011;46342;49.046;11.920;2024-02-16T11:49:44;4.18;;;3.72;;
60494;SDS011;46342;49.046;11.920;2024-02-16T11:52:11;5.45;;;3.40;;
60494;SDS011;46342;49.046;11.920;2024-02-16T11:54:37;4.60;;;3.42;;
60494;SDS011;46342;49.046;11.920;2024-02-16T11:57:03;4.72;;;3.53;;
60494;SDS011;46342;49.046;11.920;2024-02-16T11:59:29;5.07;;;3.58;;
60494;SDS011;46342;49.046;11.920;2024-02-16T12:01:57;4.97;;;3.42;;
60494;SDS011;46342;49.046;11.920;2024-02-16T12:04:24;5.63;;;3.53;;
60494;SDS011;46342;49.046;11.920;2024-02-16T12:06:51;4.32;;;3.40;;
60494;SDS011;46342;49.046;11.920;2024-02-16T12:09:21;4.65;;;3.13;;
60494;SDS011;46342;49.046;11.920;2024-02-16T12:11:50;3.90;;;3.40;;
60494;SDS011;46342;49.046;11.920;2024-02-16T12:14:17;3.72;;;3.40;;
60494;SDS011;46342;49.046;11.920;2024-02-16T12:16:47;4.20;;;3.55;;
60494;SDS011;46342;49.046;11.920;2024-02-16T12:19:13;4.00;;;3.58;;
60494;SDS011;46342;49.046;11.920;2024-02-16T12:21:39;4.50;;;3.47;;
60494;SDS011;46342;49.046;11.920;2024-02-16T12:24:05;3.92;;;3.53;;
60494;SDS011;46342;49.046;11.920;2024-02-16T12:26:31;3.42;;;3.03;;
60494;SDS011;46342;49.046;11.920;2024-02-16T12:28:56;4.30;;;3.75;;
60494;SDS011;46342;49.046;11.920;2024-02-16T12:31:22;4.63;;;3.83;;
60494;SDS011;46342;49.046;11.920;2024-02-16T12:33:48;5.38;;;3.70;;
60494;SDS011;46342;49.046;11.920;2024-02-16T12:36:14;4.80;;;3.97;;
60494;SDS011;46342;49.046;11.920;2024-02-16T12:38:40;5.32;;;3.80;;
60494;SDS011;46342;49.046;11.920;2024-02-16T12:41:05;4.72;;;3.80;;
60494;SDS011;46342;49.046;11.920;2024-02-16T12:43:31;3.92;;;3.53;;
60494;SDS011;46342;49.046;11.920;2024-02-16T12:45:57;3.50;;;3.20;;
60494;SDS011;46342;49.046;11.920;2024-02-16T12:48:24;4.57;;;3.30;;
60494;SDS011;46342;49.046;11.920;2024-02-16T12:50:50;3.97;;;3.53;;
60494;SDS011;46342;49.046;11.920;2024-02-16T12:53:17;4.35;;;3.28;;
60494;SDS011;46342;49.046;11.920;2024-02-16T12:55:43;3.55;;;3.20;;
60494;SDS011;46342;49.046;11.920;2024-02-16T12:58:09;3.50;;;3.17;;
60494;SDS011;46342;49.046;11.920;2024-02-16T13:00:34;5.03;;;3.30;;
60494;SDS011;46342;49.046;11.920;2024-02-16T13:03:00;3.45;;;3.15;;
60494;SDS011;46342;49.046;11.920;2024-02-16T13:05:26;6.43;;;3.30;;
60494;SDS011;46342;49.046;11.920;2024-02-16T13:07:52;4.07;;;3.13;;
60494;SDS011;46342;49.046;11.920;2024-02-16T13:10:17;4.18;;;2.78;;
60494;SDS011;46342;49.046;11.920;2024-02-16T13:12:44;3.58;;;3.05;;
60494;SDS011;46342;49.046;11.920;2024-02-16T13:15:10;3.08;;;2.75;;
60494;SDS011;46342;49.046;11.920;2024-02-16T13:17:35;3.08;;;2.60;;
60494;SDS011;46342;49.046;11.920;2024-02-16T13:20:01;3.97;;;2.97;;
60494;SDS011;46342;49.046;11.920;2024-02-16T13:22:34;4.60;;;2.88;;
60494;SDS011;46342;49.046;11.920;2024-02-16T13:25:01;4.88;;;3.20;;
60494;SDS011;46342;49.046;11.920;2024-02-16T13:27:33;4.75;;;3.38;;
60494;SDS011;46342;49.046;11.920;2024-02-16T13:29:59;3.20;;;2.80;;
60494;SDS011;46342;49.046;11.920;2024-02-16T13:32:25;4.10;;;2.67;;
60494;SDS011;46342;49.046;11.920;2024-02-16T13:34:51;2.85;;;2.58;;
60494;SDS011;46342;49.046;11.920;2024-02-16T13:37:16;3.65;;;2.95;;
60494;SDS011;46342;49.046;11.920;2024-02-16T13:39:42;5.10;;;3.33;;
60494;SDS011;46342;49.046;11.920;2024-02-16T13:42:07;5.55;;;3.17;;
60494;SDS011;46342;49.046;11.920;2024-02-16T13:44:33;3.80;;;3.20;;
60494;SDS011;46342;49.046;11.920;2024-02-16T13:47:00;3.63;;;3.30;;
60494;SDS011;46342;49.046;11.920;2024-02-16T13:49:25;5.25;;;3.28;;
60494;SDS011;46342;49.046;11.920;2024-02-16T13:51:51;3.55;;;3.08;;
60494;SDS011;46342;49.046;11.920;2024-02-16T13:54:16;4.30;;;3.15;;
60494;SDS011;46342;49.046;11.920;2024-02-16T13:56:42;4.93;;;3.40;;
60494;SDS011;46342;49.046;11.920;2024-02-16T13:59:08;3.85;;;3.38;;
60494;SDS011;46342;49.046;11.920;2024-02-16T14:01:34;4.50;;;3.38;;
60494;SDS011;46342;49.046;11.920;2024-02-16T14:04:01;3.78;;;3.38;;
60494;SDS011;46342;49.046;11.920;2024-02-16T14:06:28;4.97;;;3.83;;
60494;SDS011;46342;49.046;11.920;2024-02-16T14:08:53;4.53;;;3.25;;
60494;SDS011;46342;49.046;11.920;2024-02-16T14:11:20;3.73;;;3.33;;
60494;SDS011;46342;49.046;11.920;2024-02-16T14:13:47;3.95;;;3.55;;
60494;SDS011;46342;49.046;11.920;2024-02-16T14:16:13;4.10;;;3.55;;
60494;SDS011;46342;49.046;11.920;2024-02-16T14:18:38;6.43;;;3.67;;
60494;SDS011;46342;49.046;11.920;2024-02-16T14:21:04;5.43;;;3.85;;
60494;SDS011;46342;49.046;11.920;2024-02-16T14:23:30;4.97;;;3.72;;
60494;SDS011;46342;49.046;11.920;2024-02-16T14:25:55;3.63;;;3.25;;
60494;SDS011;46342;49.046;11.920;2024-02-16T14:28:21;3.28;;;2.97;;
60494;SDS011;46342;49.046;11.920;2024-02-16T14:30:47;3.50;;;2.75;;
60494;SDS011;46342;49.046;11.920;2024-02-16T14:33:12;3.58;;;3.20;;
60494;SDS011;46342;49.046;11.920;2024-02-16T14:35:41;5.60;;;3.20;;
60494;SDS011;46342;49.046;11.920;2024-02-16T14:38:10;4.63;;;3.47;;
60494;SDS011;46342;49.046;11.920;2024-02-16T14:40:37;5.90;;;3.83;;